createdAt,value
2017-05-09T00:01:35.485Z,1.38
2017-05-09T00:04:03.984Z,1.30
2017-05-09T00:06:31.700Z,1.20
2017-05-09T00:08:59.425Z,1.38
2017-05-09T00:11:27.551Z,1.45
2017-05-09T00:13:55.270Z,1.78
2017-05-09T00:16:22.992Z,1.22
2017-05-09T00:18:53.333Z,1.75
2017-05-09T00:21:21.052Z,1.07
2017-05-09T00:23:48.772Z,1.12
2017-05-09T00:26:17.313Z,2.35
2017-05-09T00:28:45.036Z,1.18
2017-05-09T00:31:12.758Z,1.93
2017-05-09T00:33:41.254Z,1.70
2017-05-09T00:36:08.992Z,1.53
2017-05-09T00:38:37.461Z,2.07
2017-05-09T00:41:05.208Z,1.17
2017-05-09T00:43:32.948Z,1.43
2017-05-09T00:46:00.681Z,1.52
2017-05-09T00:48:28.445Z,2.07
2017-05-09T00:50:56.173Z,2.05
2017-05-09T00:53:23.897Z,1.68
2017-05-09T00:55:51.642Z,1.27
2017-05-09T00:58:19.360Z,1.30
2017-05-09T01:00:47.104Z,1.78
2017-05-09T01:03:14.868Z,1.52
2017-05-09T01:05:42.595Z,2.03
2017-05-09T01:08:10.311Z,1.55
2017-05-09T01:10:38.696Z,1.20
2017-05-09T01:13:06.416Z,1.78
2017-05-09T01:15:34.139Z,1.48
2017-05-09T01:18:02.637Z,1.80
2017-05-09T01:20:30.741Z,1.67
2017-05-09T01:22:58.486Z,1.75
2017-05-09T01:25:26.508Z,2.17
2017-05-09T01:27:54.229Z,1.60
2017-05-09T01:30:21.956Z,1.60
2017-05-09T01:32:50.471Z,1.85
2017-05-09T01:35:18.219Z,1.58
2017-05-09T01:37:45.945Z,1.95
2017-05-09T01:40:13.712Z,1.35
2017-05-09T01:42:41.432Z,1.43
2017-05-09T01:45:09.155Z,1.65
2017-05-09T01:47:36.902Z,1.85
2017-05-09T01:50:05.377Z,1.25
2017-05-09T01:52:33.132Z,2.02
2017-05-09T01:55:01.168Z,1.35
2017-05-09T01:57:28.891Z,1.57
2017-05-09T01:59:57.365Z,1.70
2017-05-09T02:02:25.983Z,1.82
2017-05-09T02:04:53.704Z,2.07
2017-05-09T02:07:21.427Z,2.02
2017-05-09T02:09:49.175Z,1.40
2017-05-09T02:12:16.907Z,1.68
2017-05-09T02:14:44.640Z,1.70
2017-05-09T02:17:12.403Z,1.32
2017-05-09T02:19:40.212Z,1.82
2017-05-09T02:22:07.948Z,2.17
2017-05-09T02:24:35.700Z,2.13
2017-05-09T02:27:03.421Z,1.70
2017-05-09T02:29:31.181Z,1.85
2017-05-09T02:31:58.953Z,1.67
2017-05-09T02:34:26.676Z,1.80
2017-05-09T02:36:54.396Z,2.27
2017-05-09T02:39:22.239Z,2.23
2017-05-09T02:41:49.957Z,2.20
2017-05-09T02:44:17.680Z,2.12
2017-05-09T02:46:45.693Z,2.02
2017-05-09T02:49:13.420Z,2.12
2017-05-09T02:51:41.135Z,1.60
2017-05-09T02:54:09.629Z,2.47
2017-05-09T02:56:37.351Z,2.60
2017-05-09T02:59:05.088Z,2.30
2017-05-09T03:01:33.296Z,2.22
2017-05-09T03:04:01.752Z,2.12
2017-05-09T03:06:29.487Z,2.03
2017-05-09T03:08:57.456Z,2.13
2017-05-09T03:11:25.220Z,1.90
2017-05-09T03:13:52.940Z,2.27
2017-05-09T03:16:21.454Z,2.52
2017-05-09T03:18:49.176Z,3.07
2017-05-09T03:21:16.896Z,2.27
2017-05-09T03:23:44.647Z,2.32
2017-05-09T03:26:12.376Z,2.58
2017-05-09T03:28:40.103Z,2.62
2017-05-09T03:31:08.400Z,2.77
2017-05-09T03:33:36.107Z,2.02
2017-05-09T03:36:03.820Z,3.63
2017-05-09T03:38:31.900Z,2.88
2017-05-09T03:40:59.619Z,2.50
2017-05-09T03:43:27.349Z,2.80
2017-05-09T03:45:55.858Z,2.30
2017-05-09T03:48:23.588Z,2.70
2017-05-09T03:50:51.308Z,2.30
2017-05-09T03:53:19.045Z,2.67
2017-05-09T03:55:46.789Z,2.93
2017-05-09T03:58:14.519Z,2.35
2017-05-09T04:00:42.275Z,2.67
2017-05-09T04:03:09.993Z,4.65
2017-05-09T04:05:37.728Z,1.98
2017-05-09T04:08:05.990Z,2.73
2017-05-09T04:10:34.143Z,2.33
2017-05-09T04:13:01.864Z,3.13
2017-05-09T04:15:29.984Z,2.90
2017-05-09T04:17:57.704Z,2.72
2017-05-09T04:20:25.428Z,2.95
2017-05-09T04:22:53.908Z,3.02
2017-05-09T04:25:21.651Z,3.87
2017-05-09T04:27:49.376Z,3.42
2017-05-09T04:30:17.599Z,3.98
2017-05-09T04:32:45.325Z,4.30
2017-05-09T04:35:13.057Z,3.12
2017-05-09T04:37:40.925Z,3.72
2017-05-09T04:40:08.645Z,3.98
2017-05-09T04:42:36.386Z,2.92
2017-05-09T04:45:04.929Z,3.47
2017-05-09T04:47:32.669Z,2.80
2017-05-09T04:50:00.387Z,3.80
2017-05-09T04:52:28.441Z,3.87
2017-05-09T04:54:56.160Z,2.70
2017-05-09T04:57:23.880Z,3.77
2017-05-09T04:59:51.763Z,3.18
2017-05-09T05:02:19.528Z,2.57
2017-05-09T05:04:47.279Z,3.25
2017-05-09T05:07:15.040Z,3.32
2017-05-09T05:09:42.781Z,3.58
2017-05-09T05:12:10.502Z,3.80
2017-05-09T05:14:38.580Z,3.25
2017-05-09T05:17:06.300Z,3.58
2017-05-09T05:19:34.016Z,3.77
2017-05-09T05:22:02.805Z,4.28
2017-05-09T05:24:30.528Z,3.57
2017-05-09T05:26:59.349Z,3.53
2017-05-09T05:29:27.091Z,3.30
2017-05-09T05:31:54.817Z,3.50
2017-05-09T05:34:22.561Z,3.70
2017-05-09T05:36:50.312Z,4.17
2017-05-09T05:39:18.801Z,3.23
2017-05-09T05:41:47.264Z,4.13
2017-05-09T05:44:15.107Z,3.23
2017-05-09T05:46:42.832Z,3.23
2017-05-09T05:49:10.549Z,3.72
2017-05-09T05:51:38.312Z,3.87
2017-05-09T05:54:06.037Z,4.05
2017-05-09T05:56:33.754Z,3.35
2017-05-09T05:59:02.756Z,3.88
2017-05-09T06:01:30.476Z,3.33
2017-05-09T06:03:58.202Z,3.93
2017-05-09T06:06:25.952Z,3.62
2017-05-09T06:08:53.689Z,3.95
2017-05-09T06:11:21.412Z,3.50
2017-05-09T06:13:49.164Z,4.72
2017-05-09T06:16:16.891Z,3.88
2017-05-09T06:18:45.395Z,3.62
2017-05-09T06:21:13.240Z,3.68
2017-05-09T06:23:41.705Z,3.52
2017-05-09T06:26:09.427Z,4.28
2017-05-09T06:28:38.156Z,3.38
2017-05-09T06:31:05.884Z,3.60
2017-05-09T06:33:33.599Z,3.03
2017-05-09T06:36:02.124Z,3.90
2017-05-09T06:38:29.848Z,3.68
2017-05-09T06:40:58.308Z,3.08
2017-05-09T06:43:26.048Z,3.27
2017-05-09T06:45:53.789Z,3.35
2017-05-09T06:48:21.507Z,3.30
2017-05-09T06:50:50.005Z,3.00
2017-05-09T06:53:17.737Z,4.00
2017-05-09T06:55:45.480Z,4.28
2017-05-09T06:58:13.468Z,3.43
2017-05-09T07:00:41.196Z,1.83
2017-05-09T07:03:08.916Z,2.25
2017-05-09T07:05:37.888Z,2.03
2017-05-09T07:08:05.604Z,1.90
2017-05-09T07:10:33.330Z,1.08
2017-05-09T07:13:01.821Z,1.85
2017-05-09T07:15:30.284Z,1.90
2017-05-09T07:17:58.784Z,2.28
2017-05-09T07:20:28.596Z,1.70
2017-05-09T07:22:56.324Z,1.95
2017-05-09T07:25:24.045Z,1.50
2017-05-09T07:27:52.372Z,1.87
2017-05-09T07:30:20.535Z,1.58
2017-05-09T07:32:48.250Z,1.45
2017-05-09T07:35:16.139Z,1.33
2017-05-09T07:37:43.859Z,1.40
2017-05-09T07:40:11.578Z,1.68
2017-05-09T07:42:39.915Z,1.60
2017-05-09T07:45:07.632Z,1.58
2017-05-09T07:47:35.347Z,1.20
2017-05-09T07:50:03.118Z,1.68
2017-05-09T07:52:30.932Z,1.72
2017-05-09T07:54:58.663Z,1.82
2017-05-09T07:57:27.281Z,3.63
2017-05-09T07:59:54.999Z,2.85
2017-05-09T08:02:22.720Z,1.52
2017-05-09T08:04:50.473Z,1.98
2017-05-09T08:07:18.205Z,1.95
2017-05-09T08:09:45.956Z,2.03
2017-05-09T08:12:13.700Z,1.57
2017-05-09T08:14:41.440Z,2.38
2017-05-09T08:17:09.196Z,1.70
2017-05-09T08:19:37.685Z,1.20
2017-05-09T08:22:05.429Z,1.60
2017-05-09T08:24:33.152Z,1.47
2017-05-09T08:27:01.266Z,1.92
2017-05-09T08:29:29.068Z,1.35
2017-05-09T08:31:57.601Z,2.13
2017-05-09T08:34:26.094Z,1.70
2017-05-09T08:36:54.568Z,2.30
2017-05-09T08:39:22.296Z,1.90
2017-05-09T08:41:51.128Z,2.25
2017-05-09T08:44:18.855Z,2.60
2017-05-09T08:46:46.605Z,1.55
2017-05-09T08:49:15.444Z,1.88
2017-05-09T08:51:43.172Z,2.17
2017-05-09T08:54:10.901Z,1.78
2017-05-09T08:56:38.659Z,1.80
2017-05-09T08:59:06.387Z,1.72
2017-05-09T09:01:34.132Z,1.58
2017-05-09T09:04:02.736Z,1.35
2017-05-09T09:06:30.473Z,2.55
2017-05-09T09:08:58.208Z,1.85
2017-05-09T09:11:25.996Z,2.22
2017-05-09T09:13:53.736Z,2.08
2017-05-09T09:16:22.593Z,1.90
2017-05-09T09:18:51.059Z,2.02
2017-05-09T09:21:18.794Z,2.84
2017-05-09T09:23:46.520Z,2.10
2017-05-09T09:26:14.258Z,2.12
2017-05-09T09:28:42.003Z,2.42
2017-05-09T09:31:09.752Z,1.62
2017-05-09T09:33:37.491Z,2.23
2017-05-09T09:36:05.224Z,2.43
2017-05-09T09:38:32.951Z,1.75
2017-05-09T09:41:00.681Z,1.94
2017-05-09T09:43:28.428Z,2.72
2017-05-09T09:45:56.156Z,1.94
2017-05-09T09:48:23.920Z,2.25
2017-05-09T09:50:51.647Z,2.18
2017-05-09T09:53:19.379Z,1.92
2017-05-09T09:55:47.120Z,1.77
2017-05-09T09:58:14.877Z,1.97
2017-05-09T10:00:43.348Z,1.98
2017-05-09T10:03:11.075Z,1.57
2017-05-09T10:05:38.799Z,1.50
2017-05-09T10:08:06.960Z,1.72
2017-05-09T10:10:35.437Z,2.72
2017-05-09T10:13:03.203Z,1.93
2017-05-09T10:15:31.964Z,2.50
2017-05-09T10:17:59.704Z,2.32
2017-05-09T10:20:27.430Z,2.52
2017-05-09T10:22:57.020Z,2.48
2017-05-09T10:25:24.745Z,2.84
2017-05-09T10:27:52.476Z,2.22
2017-05-09T10:30:20.276Z,2.08
2017-05-09T10:32:48.017Z,2.40
2017-05-09T10:35:15.745Z,2.04
2017-05-09T10:37:44.273Z,1.62
2017-05-09T10:40:11.995Z,3.26
2017-05-09T10:42:40.461Z,2.36
2017-05-09T10:45:09.439Z,2.44
2017-05-09T10:47:37.164Z,3.60
2017-05-09T10:50:04.885Z,2.76
2017-05-09T10:52:33.409Z,2.38
2017-05-09T10:55:01.162Z,2.74
2017-05-09T10:57:28.892Z,2.18
2017-05-09T10:59:57.980Z,2.70
2017-05-09T11:02:25.704Z,2.68
2017-05-09T11:04:53.428Z,3.14
2017-05-09T11:07:21.924Z,1.86
2017-05-09T11:09:49.664Z,2.54
2017-05-09T11:12:18.129Z,2.60
2017-05-09T11:14:46.212Z,2.88
2017-05-09T11:17:16.116Z,3.12
2017-05-09T11:19:43.869Z,2.40
2017-05-09T11:22:12.788Z,2.78
2017-05-09T11:24:40.507Z,2.28
2017-05-09T11:27:08.234Z,2.96
2017-05-09T11:29:35.985Z,2.60
2017-05-09T11:32:03.710Z,3.34
2017-05-09T11:34:31.462Z,2.88
2017-05-09T11:37:00.169Z,2.46
2017-05-09T11:39:27.896Z,2.02
2017-05-09T11:41:55.624Z,2.38
2017-05-09T11:44:23.388Z,2.44
2017-05-09T11:46:51.124Z,2.70
2017-05-09T11:49:18.856Z,2.68
2017-05-09T11:51:46.656Z,2.70
2017-05-09T11:54:14.380Z,2.94
2017-05-09T11:56:42.101Z,2.70
2017-05-09T11:59:10.971Z,2.84
2017-05-09T12:01:38.700Z,3.54
2017-05-09T12:04:06.685Z,2.24
2017-05-09T12:06:35.496Z,2.04
2017-05-09T12:09:03.230Z,2.54
2017-05-09T12:11:30.956Z,2.66
2017-05-09T12:13:58.727Z,2.02
2017-05-09T12:16:26.452Z,2.60
2017-05-09T12:18:54.916Z,2.92
2017-05-09T12:21:22.688Z,2.48
2017-05-09T12:23:50.412Z,2.28
2017-05-09T12:26:18.140Z,1.98
2017-05-09T12:28:46.167Z,2.54
2017-05-09T12:31:13.896Z,2.92
2017-05-09T12:33:41.616Z,2.48
2017-05-09T12:36:10.132Z,2.40
2017-05-09T12:38:37.855Z,2.14
2017-05-09T12:41:05.576Z,2.18
2017-05-09T12:43:33.327Z,2.32
2017-05-09T12:46:01.052Z,1.90
2017-05-09T12:48:29.550Z,2.20
2017-05-09T12:50:57.283Z,2.40
2017-05-09T12:53:25.000Z,1.96
2017-05-09T12:55:52.719Z,1.96
2017-05-09T12:58:21.216Z,1.94
2017-05-09T13:00:48.988Z,2.28
2017-05-09T13:03:16.985Z,1.62
2017-05-09T13:05:45.775Z,1.62
2017-05-09T13:08:13.689Z,1.80
2017-05-09T13:10:42.156Z,1.90
2017-05-09T13:13:09.884Z,1.86
2017-05-09T13:15:37.620Z,1.92
2017-05-09T13:18:05.361Z,1.90
2017-05-09T13:20:33.100Z,2.08
2017-05-09T13:23:00.832Z,1.93
2017-05-09T13:25:28.573Z,1.80
2017-05-09T13:27:56.330Z,1.97
2017-05-09T13:30:24.075Z,2.05
2017-05-09T13:32:51.910Z,2.07
2017-05-09T13:35:19.642Z,3.55
2017-05-09T13:37:47.382Z,2.00
2017-05-09T13:40:15.151Z,2.67
2017-05-09T13:42:42.888Z,1.98
2017-05-09T13:45:11.385Z,2.00
2017-05-09T13:47:39.864Z,2.20
2017-05-09T13:50:07.611Z,2.18
2017-05-09T13:52:36.732Z,2.30
2017-05-09T13:55:04.463Z,1.83
2017-05-09T13:57:32.210Z,1.73
2017-05-09T14:00:01.224Z,2.27
2017-05-09T14:02:28.965Z,2.30
2017-05-09T14:04:56.704Z,1.95
2017-05-09T14:07:24.444Z,1.97
2017-05-09T14:09:52.168Z,2.25
2017-05-09T14:12:19.893Z,2.15
2017-05-09T14:14:47.617Z,4.85
2017-05-09T14:17:15.364Z,1.88
2017-05-09T14:19:43.093Z,2.13
2017-05-09T14:22:11.165Z,2.47
2017-05-09T14:24:38.905Z,2.73
2017-05-09T14:27:06.632Z,1.55
2017-05-09T14:29:34.803Z,2.18
2017-05-09T14:32:02.532Z,2.02
2017-05-09T14:34:30.264Z,2.48
2017-05-09T14:36:58.040Z,1.78
2017-05-09T14:39:25.773Z,2.05
2017-05-09T14:41:53.655Z,2.50
2017-05-09T14:44:22.200Z,2.17
2017-05-09T14:46:49.920Z,2.40
2017-05-09T14:49:17.660Z,2.22
2017-05-09T14:51:45.406Z,1.97
2017-05-09T14:54:13.140Z,2.30
2017-05-09T14:56:40.886Z,2.27
2017-05-09T14:59:08.655Z,2.27
2017-05-09T15:01:36.384Z,2.35
2017-05-09T15:04:04.120Z,2.82
2017-05-09T15:06:32.604Z,2.43
2017-05-09T15:09:01.079Z,2.73
2017-05-09T15:11:28.814Z,2.48
2017-05-09T15:13:56.556Z,2.10
2017-05-09T15:16:24.337Z,2.65
2017-05-09T15:18:52.064Z,2.67
2017-05-09T15:21:19.795Z,2.73
2017-05-09T15:23:47.861Z,1.97
2017-05-09T15:26:15.593Z,2.53
2017-05-09T15:28:43.366Z,2.37
2017-05-09T15:31:11.091Z,2.13
2017-05-09T15:33:38.832Z,1.88
2017-05-09T15:36:07.304Z,2.50
2017-05-09T15:38:35.773Z,2.42
2017-05-09T15:41:03.515Z,1.83
2017-05-09T15:43:31.387Z,1.83
2017-05-09T15:45:59.117Z,2.05
2017-05-09T15:48:26.845Z,2.33
2017-05-09T15:50:55.319Z,2.17
2017-05-09T15:53:23.054Z,2.65
2017-05-09T15:55:50.804Z,2.18
2017-05-09T15:58:18.537Z,3.10
2017-05-09T16:00:46.567Z,1.78
2017-05-09T16:03:14.332Z,1.87
2017-05-09T16:05:42.060Z,2.62
2017-05-09T16:08:10.173Z,2.70
2017-05-09T16:10:37.899Z,2.83
2017-05-09T16:13:05.623Z,3.73
2017-05-09T16:15:33.387Z,2.53
2017-05-09T16:18:01.123Z,2.55
2017-05-09T16:20:28.864Z,2.32
2017-05-09T16:22:57.472Z,2.02
2017-05-09T16:25:25.948Z,2.32
2017-05-09T16:27:53.673Z,2.05
2017-05-09T16:30:21.808Z,2.20
2017-05-09T16:32:49.547Z,2.42
2017-05-09T16:35:17.290Z,2.58
2017-05-09T16:37:45.065Z,2.50
2017-05-09T16:40:12.784Z,2.16
2017-05-09T16:42:40.512Z,2.28
2017-05-09T16:45:09.392Z,1.86
2017-05-09T16:47:37.116Z,2.60
2017-05-09T16:50:04.841Z,2.76
2017-05-09T16:52:32.996Z,2.84
2017-05-09T16:55:00.763Z,2.50
2017-05-09T16:57:29.245Z,2.30
2017-05-09T16:59:59.976Z,2.38
2017-05-09T17:02:28.437Z,3.40
2017-05-09T17:04:56.160Z,3.03
2017-05-09T17:07:24.529Z,3.22
2017-05-09T17:09:52.264Z,2.70
2017-05-09T17:12:20.727Z,3.17
2017-05-09T17:14:48.469Z,3.08
2017-05-09T17:17:16.220Z,3.72
2017-05-09T17:19:43.948Z,3.35
2017-05-09T17:22:12.462Z,2.52
2017-05-09T17:24:40.200Z,2.70
2017-05-09T17:27:07.933Z,3.13
2017-05-09T17:29:35.688Z,3.08
2017-05-09T17:32:03.409Z,3.42
2017-05-09T17:34:31.149Z,3.90
2017-05-09T17:36:59.287Z,3.07
2017-05-09T17:39:27.012Z,3.58
2017-05-09T17:41:54.744Z,3.50
2017-05-09T17:44:24.939Z,2.73
2017-05-09T17:46:52.725Z,2.87
2017-05-09T17:49:21.180Z,4.00
2017-05-09T17:51:48.948Z,2.57
2017-05-09T17:54:16.672Z,3.53
2017-05-09T17:56:44.392Z,3.87
2017-05-09T17:59:13.264Z,3.15
2017-05-09T18:01:40.984Z,2.92
2017-05-09T18:04:08.709Z,2.68
2017-05-09T18:06:37.533Z,3.88
2017-05-09T18:09:05.252Z,3.30
2017-05-09T18:11:33.708Z,3.43
2017-05-09T18:14:01.428Z,3.33
2017-05-09T18:16:29.149Z,3.18
2017-05-09T18:18:56.872Z,3.22
2017-05-09T18:21:24.600Z,3.28
2017-05-09T18:23:53.059Z,3.55
2017-05-09T18:26:20.780Z,2.82
2017-05-09T18:28:48.558Z,2.62
2017-05-09T18:31:16.296Z,2.75
2017-05-09T18:33:44.045Z,3.48
2017-05-09T18:36:11.797Z,2.90
2017-05-09T18:38:39.533Z,3.13
2017-05-09T18:41:08.260Z,2.90
2017-05-09T18:43:36.026Z,3.75
2017-05-09T18:46:03.751Z,3.75
2017-05-09T18:48:31.496Z,2.97
2017-05-09T18:50:59.245Z,4.23
2017-05-09T18:53:26.969Z,2.95
2017-05-09T18:55:54.705Z,2.53
2017-05-09T18:58:22.444Z,2.83
2017-05-09T19:00:50.189Z,2.13
2017-05-09T19:03:17.909Z,2.68
2017-05-09T19:05:45.648Z,2.60
2017-05-09T19:08:13.393Z,3.03
2017-05-09T19:10:41.115Z,2.57
2017-05-09T19:13:08.868Z,2.75
2017-05-09T19:15:37.324Z,3.63
2017-05-09T19:18:05.085Z,4.10
2017-05-09T19:20:33.277Z,3.40
2017-05-09T19:23:01.737Z,3.25
2017-05-09T19:25:29.460Z,2.57
2017-05-09T19:27:57.577Z,2.57
2017-05-09T19:30:25.329Z,2.98
2017-05-09T19:32:53.049Z,2.65
2017-05-09T19:35:20.797Z,3.13
2017-05-09T19:37:48.528Z,2.03
2017-05-09T19:40:16.293Z,3.10
2017-05-09T19:42:44.882Z,3.42
2017-05-09T19:45:13.339Z,3.45
2017-05-09T19:47:41.062Z,3.85
2017-05-09T19:50:10.123Z,3.82
2017-05-09T19:52:38.586Z,2.43
2017-05-09T19:55:06.304Z,4.82
2017-05-09T19:57:34.052Z,2.87
2017-05-09T20:00:02.801Z,2.83
2017-05-09T20:02:30.520Z,3.47
2017-05-09T20:04:59.601Z,3.07
2017-05-09T20:07:27.363Z,2.70
2017-05-09T20:09:55.084Z,2.98
2017-05-09T20:12:22.860Z,3.43
2017-05-09T20:14:51.344Z,3.35
2017-05-09T20:17:19.805Z,2.98
2017-05-09T20:19:47.686Z,3.13
2017-05-09T20:22:15.420Z,3.82
2017-05-09T20:24:43.143Z,3.57
2017-05-09T20:27:11.280Z,4.08
2017-05-09T20:29:39.005Z,2.95
2017-05-09T20:32:06.720Z,3.57
2017-05-09T20:34:34.465Z,3.37
2017-05-09T20:37:02.205Z,3.30
2017-05-09T20:39:29.934Z,3.90
2017-05-09T20:41:57.658Z,4.32
2017-05-09T20:44:25.384Z,3.73
2017-05-09T20:46:53.104Z,2.80
2017-05-09T20:49:21.566Z,3.62
2017-05-09T20:51:50.075Z,3.32
2017-05-09T20:54:17.793Z,5.22
2017-05-09T20:56:45.517Z,3.97
2017-05-09T20:59:13.239Z,3.52
2017-05-09T21:01:42.341Z,3.97
2017-05-09T21:04:10.807Z,3.50
2017-05-09T21:06:38.522Z,2.62
2017-05-09T21:09:06.240Z,4.03
2017-05-09T21:11:34.757Z,3.57
2017-05-09T21:14:02.481Z,3.03
2017-05-09T21:16:30.205Z,3.68
2017-05-09T21:18:57.920Z,2.52
2017-05-09T21:21:26.418Z,2.68
2017-05-09T21:23:54.217Z,3.78
2017-05-09T21:26:21.956Z,3.37
2017-05-09T21:28:49.673Z,3.77
2017-05-09T21:31:17.393Z,2.87
2017-05-09T21:33:45.117Z,2.63
2017-05-09T21:36:12.841Z,4.20
2017-05-09T21:38:40.564Z,3.75
2017-05-09T21:41:08.285Z,3.67
2017-05-09T21:43:36.005Z,3.30
2017-05-09T21:46:03.735Z,2.93
2017-05-09T21:48:31.499Z,3.23
2017-05-09T21:50:59.217Z,2.58
2017-05-09T21:53:27.428Z,2.73
2017-05-09T21:55:55.895Z,3.35
2017-05-09T21:58:24.006Z,2.27
2017-05-09T22:00:51.752Z,2.42
2017-05-09T22:03:20.215Z,4.12
2017-05-09T22:05:47.960Z,2.48
2017-05-09T22:08:15.680Z,2.60
2017-05-09T22:10:43.415Z,2.92
2017-05-09T22:13:11.879Z,3.28
2017-05-09T22:15:40.072Z,3.38
2017-05-09T22:18:08.545Z,5.08
2017-05-09T22:20:37.007Z,3.62
2017-05-09T22:23:05.807Z,3.42
2017-05-09T22:25:33.524Z,3.40
2017-05-09T22:28:01.247Z,3.58
2017-05-09T22:30:29.708Z,3.60
2017-05-09T22:32:57.425Z,3.25
2017-05-09T22:35:25.140Z,3.45
2017-05-09T22:37:52.898Z,3.18
2017-05-09T22:40:20.616Z,4.48
2017-05-09T22:42:48.352Z,3.80
2017-05-09T22:45:16.497Z,3.98
2017-05-09T22:47:44.216Z,3.73
2017-05-09T22:50:11.941Z,3.97
2017-05-09T22:52:40.811Z,2.90
2017-05-09T22:55:09.072Z,3.13
2017-05-09T22:57:36.796Z,5.27
2017-05-09T23:00:05.292Z,4.77
2017-05-09T23:02:33.004Z,3.80
2017-05-09T23:05:01.459Z,3.87
2017-05-09T23:07:29.544Z,3.97
2017-05-09T23:09:57.262Z,3.48
2017-05-09T23:12:24.984Z,4.15
2017-05-09T23:14:53.468Z,3.27
2017-05-09T23:17:21.194Z,4.47
2017-05-09T23:19:48.927Z,4.45
2017-05-09T23:22:16.683Z,2.57
2017-05-09T23:24:44.400Z,3.75
2017-05-09T23:27:12.117Z,4.70
2017-05-09T23:29:39.872Z,4.18
2017-05-09T23:32:07.592Z,4.08
2017-05-09T23:34:35.333Z,4.67
2017-05-09T23:37:03.424Z,4.33
2017-05-09T23:39:31.142Z,3.47
2017-05-09T23:41:58.866Z,4.30
2017-05-09T23:44:27.544Z,3.33
2017-05-09T23:46:55.260Z,3.53
2017-05-09T23:49:22.988Z,3.48
2017-05-09T23:51:51.479Z,3.28
2017-05-09T23:54:19.196Z,4.35
2017-05-09T23:56:46.932Z,4.83
2017-05-09T23:59:15.557Z,3.63
